Time;durP1;ratioP1;P1;durP2;ratioP2;P2;SDS_P1;SDS_P2;PMS_P1;PMS_P2;Temp;Humidity;BMP_temperature;BMP_pressure;BME280_temperature;BME280_humidity;BME280_pressure;Samples;Min_cycle;Max_cycle;Signal;HPM_P1;HPM_P2
2022/07/23 00:00:52;;;;;;;;;26.25;19.50;;;;;22.91;59.65;101195.78;5034973;28;45407;-37
2022/07/23 00:03:17;;;;;;;;;18.75;16.00;;;;;22.92;59.01;101199.28;5022495;28;71929;-37
2022/07/23 00:05:42;;;;;;;;;19.50;17.50;;;;;22.90;59.28;101195.88;5031278;28;71059;-37
2022/07/23 00:08:08;;;;;;;;;25.25;22.00;;;;;22.92;59.32;101196.63;5029325;28;45483;-38
2022/07/23 00:10:33;;;;;;;;;23.25;18.00;;;;;22.92;59.43;101194.78;5034370;28;45527;-37
2022/07/23 00:12:59;;;;;;;;;19.50;15.75;;;;;22.96;59.11;101198.09;5033443;28;59892;-38
2022/07/23 00:15:24;;;;;;;;;21.00;16.00;;;;;22.96;59.24;101195.41;5035359;28;63057;-37
2022/07/23 00:17:50;;;;;;;;;17.25;16.00;;;;;22.98;59.33;101201.50;5032180;28;45498;-37
2022/07/23 00:20:15;;;;;;;;;23.50;17.50;;;;;23.01;59.27;101200.44;5024503;28;45432;-37
2022/07/23 00:22:48;;;;;;;;;19.25;17.50;;;;;;;;5030159;28;61743;-37
2022/07/23 00:25:13;;;;;;;;;17.75;14.75;;;;;23.02;58.69;101194.13;5020311;28;47182;-38
2022/07/23 00:27:38;;;;;;;;;17.00;15.00;;;;;23.01;59.25;101190.59;5029103;28;45341;-38
2022/07/23 00:30:04;;;;;;;;;25.00;16.50;;;;;23.02;59.01;101191.44;5035447;28;45214;-37
2022/07/23 00:32:30;;;;;;;;;20.50;16.00;;;;;23.00;59.18;101190.72;5034460;28;45530;-37
2022/07/23 00:34:55;;;;;;;;;22.50;17.75;;;;;23.00;59.13;101194.25;5027829;28;46191;-37
2022/07/23 00:37:20;;;;;;;;;19.25;19.00;;;;;23.00;59.06;101188.03;5028127;28;67100;-37
2022/07/23 00:39:46;;;;;;;;;20.75;16.50;;;;;22.98;59.43;101185.47;5034591;28;45156;-37
2022/07/23 00:42:11;;;;;;;;;17.50;15.25;;;;;23.02;59.57;101184.31;5033131;28;45317;-38
2022/07/23 00:44:36;;;;;;;;;23.50;16.75;;;;;23.06;59.00;101188.50;5036755;28;63201;-38
2022/07/23 00:47:02;;;;;;;;;20.50;17.25;;;;;23.05;59.35;101186.78;5029101;28;45224;-38
2022/07/23 00:49:29;;;;;;;;;21.00;19.25;;;;;23.01;59.23;101187.09;5035373;28;45324;-38
2022/07/23 00:51:54;;;;;;;;;19.00;17.25;;;;;23.00;59.13;101182.69;5026987;28;45502;-38
2022/07/23 00:54:22;;;;;;;;;21.25;16.00;;;;;23.01;59.42;101179.09;5035740;28;45400;-38
2022/07/23 00:56:48;;;;;;;;;19.25;16.00;;;;;23.02;59.08;101181.66;5029580;28;46034;-38
2022/07/23 00:59:13;;;;;;;;;22.00;18.50;;;;;23.02;59.47;101184.31;5014952;28;47275;-38
2022/07/23 01:01:39;;;;;;;;;19.25;17.50;;;;;23.05;58.81;101183.25;5029629;28;45284;-38
2022/07/23 01:04:05;;;;;;;;;20.00;17.25;;;;;23.05;59.05;101185.94;5035531;28;45588;-38
2022/07/23 01:06:34;;;;;;;;;22.25;19.25;;;;;23.07;59.05;101178.66;5028981;28;45384;-38
2022/07/23 01:09:00;;;;;;;;;21.25;19.25;;;;;23.05;59.09;101183.25;5028318;28;45471;-39
2022/07/23 01:11:25;;;;;;;;;20.75;18.25;;;;;23.01;59.03;101171.91;5030020;28;54797;-38
2022/07/23 01:13:51;;;;;;;;;18.25;14.50;;;;;23.02;59.04;101176.31;5036840;28;46251;-38
2022/07/23 01:16:16;;;;;;;;;21.00;19.00;;;;;23.02;59.04;101184.31;5031181;28;45402;-38
2022/07/23 01:18:41;;;;;;;;;19.50;18.25;;;;;23.01;59.38;101176.41;5030405;28;55924;-38
2022/07/23 01:21:08;;;;;;;;;22.50;19.75;;;;;;;;5028680;28;45848;-38
2022/07/23 01:23:34;;;;;;;;;20.50;18.25;;;;;23.05;59.71;101180.59;5036279;28;45259;-38
2022/07/23 01:25:59;;;;;;;;;23.25;18.50;;;;;23.00;59.44;101183.59;5027726;28;62477;-38
2022/07/23 01:28:24;;;;;;;;;21.25;18.00;;;;;22.96;59.44;101179.41;5028727;28;50366;-38
2022/07/23 01:30:50;;;;;;;;;20.50;19.00;;;;;22.90;59.75;101183.38;5034056;28;45907;-38
2022/07/23 01:33:16;;;;;;;;;20.75;16.75;;;;;22.80;59.84;101176.16;5037812;28;46371;-38
2022/07/23 01:35:41;;;;;;;;;25.75;18.00;;;;;22.77;60.11;101179.03;5027714;28;45398;-38
2022/07/23 01:38:06;;;;;;;;;21.75;18.00;;;;;22.79;59.95;101180.63;5036904;28;55654;-38
2022/07/23 01:40:32;;;;;;;;;20.00;18.25;;;;;22.76;60.09;101178.19;5031043;28;50540;-38
2022/07/23 01:42:57;;;;;;;;;25.25;20.75;;;;;22.70;59.96;101173.25;5031446;28;66972;-38
2022/07/23 01:45:22;;;;;;;;;21.75;17.25;;;;;22.65;60.51;101180.78;5032039;28;63653;-38
2022/07/23 01:47:48;;;;;;;;;18.00;17.75;;;;;22.70;60.37;101174.13;5032605;28;45380;-38
2022/07/23 01:50:14;;;;;;;;;28.00;20.00;;;;;22.75;60.14;101177.34;5031181;28;45486;-39
2022/07/23 01:52:39;;;;;;;;;26.25;21.00;;;;;22.77;60.32;101171.00;5033006;28;45487;-38
2022/07/23 01:55:05;;;;;;;;;25.50;22.50;;;;;22.79;60.31;101171.75;5029484;28;45536;-38
2022/07/23 01:57:31;;;;;;;;;21.25;18.75;;;;;22.80;60.61;101170.81;5029757;28;46091;-38
2022/07/23 01:59:56;;;;;;;;;24.50;19.00;;;;;22.82;60.09;101169.72;5031704;28;45396;-38
2022/07/23 02:02:21;;;;;;;;;18.25;17.50;;;;;22.81;60.27;101168.03;5032861;28;64455;-38
2022/07/23 02:04:47;;;;;;;;;19.00;18.25;;;;;22.83;60.02;101163.44;5023528;28;61981;-38
2022/07/23 02:07:12;;;;;;;;;23.25;20.25;;;;;22.89;60.08;101164.78;5033008;28;63502;-38
2022/07/23 02:09:38;;;;;;;;;19.50;18.50;;;;;22.90;60.39;101158.50;5035606;28;45596;-38
2022/07/23 02:12:03;;;;;;;;;21.50;18.75;;;;;22.91;60.29;101163.75;5033626;28;47449;-38
2022/07/23 02:14:29;;;;;;;;;20.25;15.75;;;;;22.88;60.09;101166.63;5033178;28;45422;-38
2022/07/23 02:16:54;;;;;;;;;23.50;19.00;;;;;22.88;59.84;101163.13;5033040;28;45379;-38
2022/07/23 02:19:19;;;;;;;;;21.50;17.25;;;;;22.91;59.88;101165.53;5024064;28;45391;-38
2022/07/23 02:21:45;;;;;;;;;23.50;20.50;;;;;22.88;59.92;101169.28;5025001;28;54146;-38
2022/07/23 02:24:11;;;;;;;;;23.50;17.00;;;;;22.85;60.13;101163.31;5029206;28;45418;-39
2022/07/23 02:26:37;;;;;;;;;21.50;20.00;;;;;22.85;59.87;101169.50;5034906;28;45253;-38
2022/07/23 02:29:04;;;;;;;;;30.00;24.00;;;;;22.88;59.85;101176.47;5037475;28;45510;-38
2022/07/23 02:31:30;;;;;;;;;31.50;27.25;;;;;22.90;60.44;101178.03;5035162;28;45742;-38
2022/07/23 02:33:55;;;;;;;;;28.00;23.75;;;;;22.90;60.77;101182.53;5035533;28;46801;-38
2022/07/23 02:36:21;;;;;;;;;29.50;24.75;;;;;22.85;60.85;101184.69;5029450;28;45418;-38
2022/07/23 02:38:47;;;;;;;;;34.25;31.25;;;;;22.84;61.14;101188.28;5026184;28;45496;-38
2022/07/23 02:41:12;;;;;;;;;32.25;26.75;;;;;22.79;61.00;101193.97;5029323;28;47022;-38
2022/07/23 02:43:37;;;;;;;;;34.50;27.75;;;;;22.74;60.61;101190.78;5029510;28;45403;-38
2022/07/23 02:46:03;;;;;;;;;34.00;28.75;;;;;22.70;60.55;101190.16;5029602;28;65479;-39
2022/07/23 02:48:29;;;;;;;;;29.75;26.00;;;;;22.70;61.39;101189.28;5033489;28;71564;-38
2022/07/23 02:50:56;;;;;;;;;32.00;27.75;;;;;22.70;60.91;101197.28;5027837;28;45937;-38
2022/07/23 02:53:22;;;;;;;;;33.75;27.50;;;;;22.67;61.01;101189.50;5031746;28;45304;-38
2022/07/23 02:55:47;;;;;;;;;33.25;20.50;;;;;22.70;60.64;101192.81;5032962;28;45459;-38
2022/07/23 02:58:12;;;;;;;;;26.00;19.25;;;;;22.62;60.99;101189.81;5025482;28;53959;-38
2022/07/23 03:00:38;;;;;;;;;26.75;21.25;;;;;22.54;60.95;101197.50;5029763;28;61307;-38
2022/07/23 03:03:03;;;;;;;;;23.00;19.50;;;;;22.53;60.90;101203.81;5033323;28;66808;-38
2022/07/23 03:05:28;;;;;;;;;22.25;20.50;;;;;22.49;61.08;101197.84;5033751;28;45737;-38
2022/07/23 03:07:54;;;;;;;;;24.00;18.50;;;;;22.50;60.43;101207.53;5029206;28;45474;-37
2022/07/23 03:10:19;;;;;;;;;23.50;18.00;;;;;22.48;60.22;101205.94;5027777;28;72276;-37
2022/07/23 03:12:44;;;;;;;;;16.50;15.25;;;;;22.49;60.94;101205.00;5032728;28;46240;-37
2022/07/23 03:15:10;;;;;;;;;17.00;17.00;;;;;22.52;60.64;101205.63;5031650;28;62997;-37
2022/07/23 03:17:35;;;;;;;;;20.75;18.50;;;;;22.53;60.26;101211.81;5029814;28;61418;-37
2022/07/23 03:20:00;;;;;;;;;17.25;17.00;;;;;22.47;60.48;101209.56;5021089;28;74256;-37
2022/07/23 03:22:26;;;;;;;;;20.25;16.00;;;;;22.40;60.33;101210.94;5028843;28;45365;-37
2022/07/23 03:24:54;;;;;;;;;17.75;12.75;;;;;22.42;61.16;101220.56;5025118;28;61976;-42
2022/07/23 03:27:23;;;;;;;;;19.75;15.50;;;;;22.43;60.21;101222.25;5032980;28;45477;-37
2022/07/23 03:29:52;;;;;;;;;23.00;17.00;;;;;22.43;60.28;101222.25;5030882;28;46201;-37
2022/07/23 03:32:17;;;;;;;;;22.50;14.75;;;;;22.46;60.67;101219.38;5031015;28;46059;-37
2022/07/23 03:34:43;;;;;;;;;27.00;17.00;;;;;22.50;60.19;101214.69;5031928;28;60963;-37
2022/07/23 03:37:08;;;;;;;;;17.25;17.00;;;;;22.52;59.71;101220.78;5028747;28;63186;-37
2022/07/23 03:39:34;;;;;;;;;21.25;15.00;;;;;22.51;59.87;101214.59;5026939;28;63404;-37
2022/07/23 03:41:59;;;;;;;;;20.25;16.75;;;;;22.51;59.89;101219.06;5028814;28;45400;-37
2022/07/23 03:44:24;;;;;;;;;18.25;13.75;;;;;22.52;59.93;101223.44;5027418;28;64120;-37
2022/07/23 03:46:50;;;;;;;;;16.75;14.75;;;;;22.54;59.16;101221.50;5027957;28;45471;-37
2022/07/23 03:49:15;;;;;;;;;15.25;14.75;;;;;22.55;59.42;101220.56;5025797;28;45466;-37
2022/07/23 03:51:40;;;;;;;;;19.00;14.25;;;;;22.53;58.44;101218.00;5024683;28;46097;-37
2022/07/23 03:54:06;;;;;;;;;16.50;13.25;;;;;22.46;58.65;101224.72;5035269;28;56619;-37
2022/07/23 03:56:31;;;;;;;;;14.25;12.75;;;;;22.37;58.99;101228.03;5034470;28;65087;-37
2022/07/23 03:58:56;;;;;;;;;13.25;12.25;;;;;22.36;58.68;101224.53;5026478;28;45684;-37
2022/07/23 04:01:22;;;;;;;;;16.50;13.50;;;;;22.36;58.88;101227.19;5032550;28;70186;-37
2022/07/23 04:03:47;;;;;;;;;17.00;13.50;;;;;22.33;58.77;101226.53;5034616;28;62563;-37
2022/07/23 04:06:13;;;;;;;;;17.75;15.25;;;;;22.27;58.56;101232.28;5029816;28;45527;-37
2022/07/23 04:08:38;;;;;;;;;17.75;16.50;;;;;22.24;59.17;101232.44;5029510;28;46255;-37
2022/07/23 04:11:03;;;;;;;;;17.25;14.50;;;;;22.24;59.61;101243.13;5028313;28;69307;-37
2022/07/23 04:13:29;;;;;;;;;16.75;14.25;;;;;22.24;59.10;101244.00;5037110;28;45383;-37
2022/07/23 04:15:54;;;;;;;;;16.50;14.75;;;;;22.27;59.31;101238.47;5035274;28;47141;-37
2022/07/23 04:18:23;;;;;;;;;21.75;16.50;;;;;22.32;59.26;101243.50;5034084;28;45483;-37
2022/07/23 04:20:48;;;;;;;;;17.75;15.00;;;;;22.34;59.04;101233.56;5033730;28;45496;-37
2022/07/23 04:23:14;;;;;;;;;18.75;15.25;;;;;22.29;59.70;101231.25;5031177;28;45388;-37
2022/07/23 04:25:39;;;;;;;;;21.25;18.00;;;;;22.31;59.35;101239.09;5026825;28;62853;-37
2022/07/23 04:28:04;;;;;;;;;15.75;13.50;;;;;22.28;59.47;101234.84;5037411;28;48581;-37
2022/07/23 04:30:30;;;;;;;;;21.00;17.75;;;;;22.32;59.33;101241.66;5030104;28;67095;-37
2022/07/23 04:32:55;;;;;;;;;18.25;15.25;;;;;22.33;59.11;101242.53;5035873;28;64818;-37
2022/07/23 04:35:21;;;;;;;;;16.00;13.50;;;;;22.30;59.10;101240.94;5037757;28;59786;-37
2022/07/23 04:37:46;;;;;;;;;16.25;14.25;;;;;22.30;58.95;101242.75;5036337;28;45426;-37
2022/07/23 04:40:12;;;;;;;;;19.50;16.00;;;;;22.26;59.24;101239.41;5029940;28;71978;-37
2022/07/23 04:42:38;;;;;;;;;19.75;16.00;;;;;22.27;59.03;101235.78;5029237;28;45387;-37
2022/07/23 04:45:04;;;;;;;;;14.00;12.00;;;;;22.30;59.13;101240.06;5031835;28;57338;-37
2022/07/23 04:47:30;;;;;;;;;17.50;14.25;;;;;22.32;58.67;101243.50;5029159;28;47220;-37
2022/07/23 04:49:56;;;;;;;;;18.00;14.50;;;;;22.35;58.84;101251.28;5036739;28;47121;-37
2022/07/23 04:52:21;;;;;;;;;21.00;17.25;;;;;22.37;58.65;101249.38;5033317;28;45507;-37
2022/07/23 04:54:46;;;;;;;;;18.75;14.00;;;;;22.31;58.31;101253.31;5037548;28;59315;-37
2022/07/23 04:57:12;;;;;;;;;15.75;12.50;;;;;22.19;58.50;101252.28;5030385;28;66161;-37
2022/07/23 04:59:37;;;;;;;;;16.50;13.75;;;;;22.17;58.18;101251.53;5030616;28;45404;-37
2022/07/23 05:02:02;;;;;;;;;19.00;15.50;;;;;22.16;58.65;101255.16;5031428;28;66948;-37
2022/07/23 05:04:28;;;;;;;;;14.75;14.25;;;;;22.13;58.55;101255.38;5033596;28;62952;-37
2022/07/23 05:06:53;;;;;;;;;18.25;16.25;;;;;22.06;58.58;101254.09;5031032;28;46278;-37
2022/07/23 05:09:19;;;;;;;;;19.75;14.50;;;;;21.98;58.35;101253.75;5029648;28;45198;-37
2022/07/23 05:11:44;;;;;;;;;14.50;13.00;;;;;21.90;58.44;101256.06;5026857;28;45493;-37
2022/07/23 05:14:12;;;;;;;;;17.50;14.25;;;;;21.88;59.02;101257.97;5037861;28;46433;-37
2022/07/23 05:16:37;;;;;;;;;16.00;13.00;;;;;21.85;58.88;101250.16;5028100;28;45447;-37
2022/07/23 05:19:03;;;;;;;;;15.00;13.50;;;;;21.87;58.96;101253.59;5036375;28;45430;-36
2022/07/23 05:21:28;;;;;;;;;17.75;14.25;;;;;21.88;58.45;101252.63;5033260;28;45288;-37
2022/07/23 05:23:54;;;;;;;;;16.75;13.75;;;;;21.87;58.53;101258.91;5030568;28;60531;-36
2022/07/23 05:26:19;;;;;;;;;21.75;15.75;;;;;21.84;58.38;101261.81;5034760;28;66525;-37
2022/07/23 05:28:44;;;;;;;;;16.75;13.50;;;;;21.86;58.07;101263.41;5030154;28;58934;-38
2022/07/23 05:31:10;;;;;;;;;20.00;15.00;;;;;21.91;58.09;101258.63;5036678;28;45537;-37
2022/07/23 05:33:35;;;;;;;;;16.75;13.50;;;;;21.92;58.04;101260.34;5036602;28;62160;-37
2022/07/23 05:36:02;;;;;;;;;18.75;13.00;;;;;21.90;57.56;101254.25;5035967;28;46666;-37
2022/07/23 05:38:28;;;;;;;;;16.00;13.50;;;;;21.90;58.35;101256.94;5035532;28;45684;-37
2022/07/23 05:40:53;;;;;;;;;16.25;13.25;;;;;21.97;58.08;101252.91;5036009;28;45517;-37
2022/07/23 05:43:18;;;;;;;;;16.25;12.50;;;;;22.01;58.01;101258.88;5032102;28;45645;-37
2022/07/23 05:45:44;;;;;;;;;15.00;11.75;;;;;22.03;57.74;101264.06;5028530;28;62545;-37
2022/07/23 05:48:09;;;;;;;;;15.50;12.00;;;;;22.08;58.22;101261.97;5031231;28;48052;-37
2022/07/23 05:50:38;;;;;;;;;11.00;10.75;;;;;22.14;57.74;101253.56;5018545;28;63506;-37
2022/07/23 05:53:03;;;;;;;;;15.50;14.25;;;;;22.17;58.12;101256.88;5036132;28;45257;-36
2022/07/23 05:55:31;;;;;;;;;22.50;16.75;;;;;22.15;57.89;101261.47;5036339;28;47113;-36
2022/07/23 05:57:57;;;;;;;;;20.75;14.25;;;;;22.09;57.75;101261.84;5033602;28;45387;-36
2022/07/23 06:00:23;;;;;;;;;16.25;14.25;;;;;22.04;58.36;101265.78;5036489;28;45455;-37
2022/07/23 06:02:48;;;;;;;;;25.50;17.50;;;;;22.04;58.57;101271.13;5034832;28;45616;-37
2022/07/23 06:05:14;;;;;;;;;21.00;14.50;;;;;22.00;58.34;101268.66;5027707;28;64528;-37
2022/07/23 06:07:39;;;;;;;;;16.75;14.50;;;;;22.01;58.90;101266.88;5032464;28;45448;-37
2022/07/23 06:10:05;;;;;;;;;27.50;19.25;;;;;22.05;59.11;101264.84;5030428;28;45283;-36
2022/07/23 06:12:31;;;;;;;;;24.75;20.00;;;;;22.05;58.61;101268.38;5032844;28;45555;-36
2022/07/23 06:14:56;;;;;;;;;24.00;19.75;;;;;22.07;58.67;101268.25;5029376;28;46083;-37
2022/07/23 06:17:21;;;;;;;;;24.75;21.50;;;;;22.09;58.58;101280.53;5033842;28;48169;-37
2022/07/23 06:19:47;;;;;;;;;22.00;17.00;;;;;22.10;58.71;101273.41;5036782;28;45242;-37
2022/07/23 06:22:12;;;;;;;;;25.75;21.00;;;;;22.12;58.83;101283.00;5033353;28;50142;-37
2022/07/23 06:24:37;;;;;;;;;28.25;21.00;;;;;22.19;59.14;101281.63;5031046;28;45494;-37
2022/07/23 06:27:03;;;;;;;;;23.75;19.50;;;;;22.23;59.01;101287.59;5028454;28;61424;-37
2022/07/23 06:29:29;;;;;;;;;27.50;23.00;;;;;22.25;59.47;101277.69;5026201;28;45399;-37
2022/07/23 06:31:54;;;;;;;;;26.75;22.00;;;;;22.25;59.19;101285.69;5034439;28;57147;-37
2022/07/23 06:34:19;;;;;;;;;32.25;22.00;;;;;22.26;59.07;101290.06;5037191;28;45731;-37
2022/07/23 06:36:45;;;;;;;;;34.75;26.50;;;;;22.28;58.80;101298.84;5038270;28;62909;-37
2022/07/23 06:39:10;;;;;;;;;31.00;28.25;;;;;22.28;59.20;101298.00;5037647;28;60413;-37
2022/07/23 06:41:36;;;;;;;;;28.50;24.75;;;;;22.25;59.13;101298.16;5029250;28;55075;-37
2022/07/23 06:44:02;;;;;;;;;35.25;25.50;;;;;22.24;59.47;101305.31;5035474;28;47074;-37
2022/07/23 06:46:27;;;;;;;;;33.50;25.25;;;;;22.19;59.78;101300.28;5024648;28;46017;-37
2022/07/23 06:48:52;;;;;;;;;31.25;25.00;;;;;22.23;59.87;101305.41;5031461;28;55524;-37
2022/07/23 06:51:17;;;;;;;;;28.25;24.50;;;;;22.28;59.45;101304.16;5029914;28;68886;-37
2022/07/23 06:53:43;;;;;;;;;37.75;29.75;;;;;22.30;59.62;101298.75;5033495;28;64873;-37
2022/07/23 06:56:08;;;;;;;;;31.25;26.00;;;;;22.30;59.67;101301.41;5023929;28;66307;-38
2022/07/23 06:58:34;;;;;;;;;40.25;29.75;;;;;22.28;59.77;101306.84;5032471;28;45277;-38
2022/07/23 07:00:59;;;;;;;;;42.50;31.50;;;;;22.26;59.77;101306.06;5034490;28;45449;-38
2022/07/23 07:03:25;;;;;;;;;43.75;32.75;;;;;22.24;59.82;101315.09;5035324;28;66557;-38
2022/07/23 07:05:50;;;;;;;;;41.25;32.50;;;;;22.21;60.14;101316.19;5029451;28;65857;-37
2022/07/23 07:08:16;;;;;;;;;45.50;33.25;;;;;22.21;60.10;101310.84;5028484;28;50068;-37
2022/07/23 07:10:41;;;;;;;;;40.00;31.75;;;;;22.26;60.35;101315.88;5030771;28;60411;-38
2022/07/23 07:13:07;;;;;;;;;42.75;31.50;;;;;22.30;59.83;101318.25;5032209;28;51368;-38
2022/07/23 07:15:32;;;;;;;;;43.25;32.50;;;;;22.31;60.19;101316.44;5028983;28;45484;-37
2022/07/23 07:17:57;;;;;;;;;47.50;32.75;;;;;22.30;59.91;101326.25;5033341;28;53259;-37
2022/07/23 07:20:23;;;;;;;;;45.25;33.25;;;;;22.29;59.92;101331.69;5030828;28;62212;-37
2022/07/23 07:22:49;;;;;;;;;45.75;32.25;;;;;22.29;60.32;101329.91;5031809;28;45741;-38
2022/07/23 07:25:14;;;;;;;;;41.75;33.25;;;;;22.26;59.95;101338.06;5043082;28;45320;-37
2022/07/23 07:27:39;;;;;;;;;48.50;35.50;;;;;22.26;60.63;101345.22;5028226;28;45364;-37
2022/07/23 07:30:06;;;;;;;;;48.00;36.00;;;;;22.26;60.27;101348.72;5032523;28;62342;-37
2022/07/23 07:32:32;;;;;;;;;43.00;34.75;;;;;22.25;60.37;101352.34;5031337;28;46595;-37
2022/07/23 07:34:58;;;;;;;;;48.25;34.25;;;;;22.26;60.11;101343.38;5027509;28;45344;-37
2022/07/23 07:37:23;;;;;;;;;37.50;32.25;;;;;22.31;60.64;101349.31;5030016;28;45491;-37
2022/07/23 07:39:48;;;;;;;;;43.50;33.50;;;;;22.39;60.47;101350.59;5029424;28;45447;-36
2022/07/23 07:42:14;;;;;;;;;36.75;31.50;;;;;22.50;60.67;101345.38;5030132;28;46011;-36
2022/07/23 07:44:39;;;;;;;;;41.00;30.25;;;;;22.62;61.04;101354.38;5028904;28;56747;-36
2022/07/23 07:47:05;;;;;;;;;33.50;31.25;;;;;22.75;60.46;101355.25;5029981;28;45399;-36
2022/07/23 07:49:30;;;;;;;;;39.75;31.75;;;;;22.84;60.55;101359.09;5033382;28;45411;-36
2022/07/23 07:51:55;;;;;;;;;30.00;26.00;;;;;22.92;60.58;101362.09;5030303;28;71580;-37
2022/07/23 07:54:21;;;;;;;;;40.25;28.50;;;;;22.98;60.88;101358.97;5035618;28;60575;-37
2022/07/23 07:56:46;;;;;;;;;38.00;31.00;;;;;23.07;60.94;101360.19;5036316;28;45726;-36
2022/07/23 07:59:11;;;;;;;;;38.25;31.00;;;;;23.12;60.65;101364.28;5035120;28;45460;-37
2022/07/23 08:01:37;;;;;;;;;44.75;30.25;;;;;23.19;60.45;101355.81;5039211;28;45500;-37
2022/07/23 08:04:02;;;;;;;;;32.25;30.00;;;;;23.25;60.39;101366.09;5048472;28;45308;-37
2022/07/23 08:06:28;;;;;;;;;38.25;30.25;;;;;23.30;60.33;101359.44;5032224;28;45315;-36
2022/07/23 08:08:53;;;;;;;;;38.50;30.50;;;;;23.36;60.14;101363.50;5046355;28;45383;-37
2022/07/23 08:11:18;;;;;;;;;37.75;31.00;;;;;23.42;59.77;101364.88;5031335;28;49043;-36
2022/07/23 08:13:44;;;;;;;;;30.75;27.50;;;;;23.46;59.89;101363.69;5026427;28;45309;-37
2022/07/23 08:16:10;;;;;;;;;32.25;29.25;;;;;23.49;59.85;101366.97;5030134;28;45499;-37
2022/07/23 08:18:35;;;;;;;;;37.50;31.00;;;;;23.54;59.67;101366.66;5036154;28;45503;-37
2022/07/23 08:21:01;;;;;;;;;44.50;30.75;;;;;23.58;59.49;101362.78;5036831;28;48188;-38
2022/07/23 08:23:27;;;;;;;;;34.50;30.00;;;;;23.64;59.61;101361.53;5034924;28;68684;-37
2022/07/23 08:25:52;;;;;;;;;37.50;32.25;;;;;23.67;59.19;101371.97;5034995;28;45431;-37
2022/07/23 08:28:18;;;;;;;;;32.75;28.50;;;;;23.72;59.00;101375.16;5030729;28;52853;-37
2022/07/23 08:30:44;;;;;;;;;36.50;30.50;;;;;23.77;59.01;101375.69;5037841;28;66014;-37
2022/07/23 08:33:13;;;;;;;;;33.25;26.50;;;;;23.80;58.77;101382.66;5037792;28;45363;-37
2022/07/23 08:35:39;;;;;;;;;33.00;29.25;;;;;23.83;59.36;101377.97;5035459;28;45182;-38
2022/07/23 08:38:07;;;;;;;;;30.75;23.00;;;;;23.88;58.97;101383.81;5035210;28;45379;-37
2022/07/23 08:40:37;;;;;;;;;32.75;29.00;;;;;23.92;58.80;101387.13;5037348;28;45422;-38
2022/07/23 08:43:07;;;;;;;;;29.25;25.25;;;;;23.96;58.64;101390.44;5049516;28;45303;-37
2022/07/23 08:45:41;;;;;;;;;35.00;28.00;;;;;23.98;58.74;101394.69;5021553;28;45839;-38
2022/07/23 08:48:18;;;;;;;;;29.50;23.25;;;;;24.03;58.50;101399.72;5032947;28;45315;-38
2022/07/23 08:50:46;;;;;;;;;30.25;28.00;;;;;24.05;58.18;101395.09;5028234;28;45511;-37
2022/07/23 08:53:11;;;;;;;;;27.00;23.00;;;;;24.06;58.43;101402.13;5033104;28;45387;-37
2022/07/23 08:55:37;;;;;;;;;31.75;25.75;;;;;24.09;58.30;101398.41;5034053;28;45456;-37
2022/07/23 08:58:03;;;;;;;;;30.00;25.75;;;;;24.13;58.32;101403.41;5035035;28;64519;-38
2022/07/23 09:00:29;;;;;;;;;30.25;25.00;;;;;24.15;58.11;101401.50;5022619;28;47005;-37
2022/07/23 09:02:54;;;;;;;;;30.75;25.00;;;;;24.18;57.85;101408.41;5027187;28;45558;-37
2022/07/23 09:05:20;;;;;;;;;28.50;23.75;;;;;24.21;57.83;101402.84;5035502;28;45399;-37
2022/07/23 09:08:08;;;;;;;;;25.25;20.25;;;;;24.24;57.76;101400.81;5032089;28;66368;-37
2022/07/23 09:10:54;;;;;;;;;30.25;24.50;;;;;24.27;57.98;101394.34;5037810;28;46262;-37
2022/07/23 09:13:41;;;;;;;;;34.75;26.50;;;;;24.30;57.79;101395.97;5038847;28;45237;-36
2022/07/23 09:16:12;;;;;;;;;33.00;28.75;;;;;24.37;57.59;101397.22;5034044;28;45193;-36
2022/07/23 09:18:41;;;;;;;;;31.50;24.25;;;;;24.40;57.66;101394.28;5036797;28;45471;-36
2022/07/23 09:21:16;;;;;;;;;25.00;22.00;;;;;24.44;57.64;101387.75;5031439;28;46345;-36
2022/07/23 09:24:06;;;;;;;;;29.00;24.50;;;;;24.48;57.62;101389.22;5031969;28;46615;-36
2022/07/23 09:26:46;;;;;;;;;31.75;25.50;;;;;24.51;57.69;101390.81;5027999;28;45564;-37
2022/07/23 09:29:15;;;;;;;;;31.75;27.75;;;;;24.55;57.60;101395.84;5039166;28;45573;-38
2022/07/23 09:31:48;;;;;;;;;34.25;29.25;;;;;24.57;56.14;101391.22;5035161;28;45477;-38
2022/07/23 09:34:17;;;;;;;;;38.00;31.25;;;;;24.54;55.96;101391.47;5039127;28;45292;-38
2022/07/23 09:36:43;;;;;;;;;34.75;28.50;;;;;24.50;56.02;101389.09;5023882;28;45443;-38
2022/07/23 09:39:10;;;;;;;;;39.25;32.00;;;;;24.53;55.82;101399.59;5038617;28;45416;-38
2022/07/23 09:41:42;;;;;;;;;35.50;29.50;;;;;24.56;55.35;101392.22;5013257;28;48149;-37
2022/07/23 09:44:10;;;;;;;;;40.25;32.25;;;;;24.55;55.35;101385.13;5036923;28;46127;-38
2022/07/23 09:46:36;;;;;;;;;42.50;30.00;;;;;24.53;55.05;101389.75;5034271;28;45649;-38
2022/07/23 09:49:14;;;;;;;;;37.25;30.75;;;;;24.50;54.95;101395.31;5034173;28;45498;-37
2022/07/23 09:52:04;;;;;;;;;39.00;30.25;;;;;24.49;54.96;101387.38;5032218;28;45589;-38
2022/07/23 09:54:33;;;;;;;;;32.50;29.75;;;;;24.52;54.71;101393.34;5037489;28;45770;-38
2022/07/23 09:57:05;;;;;;;;;31.00;27.00;;;;;24.54;54.43;101396.84;5032622;28;46037;-37
2022/07/23 09:59:34;;;;;;;;;39.75;27.25;;;;;24.55;54.05;101393.16;5015161;28;45352;-38
2022/07/23 10:02:01;;;;;;;;;33.75;28.75;;;;;24.60;54.76;101391.00;5034743;28;46962;-37
2022/07/23 10:04:28;;;;;;;;;34.00;28.00;;;;;24.67;55.41;101391.38;5037738;28;45420;-36
2022/07/23 10:06:56;;;;;;;;;32.00;27.75;;;;;24.75;55.86;101385.44;5029938;28;45433;-36
2022/07/23 10:09:33;;;;;;;;;31.00;25.50;;;;;24.79;55.83;101381.56;5036870;28;45465;-36
2022/07/23 10:14:45;;;;;;;;;29.75;24.75;;;;;24.75;56.19;101377.41;5035098;28;45808;-36
2022/07/23 10:17:11;;;;;;;;;30.50;24.00;;;;;25.02;56.75;101379.78;5034950;28;45313;-37
2022/07/23 10:19:37;;;;;;;;;24.75;23.25;;;;;25.05;56.14;101384.03;5022203;28;45541;-36
2022/07/23 10:22:06;;;;;;;;;28.50;24.25;;;;;24.97;56.45;101388.16;5028337;28;45653;-36
2022/07/23 10:24:59;;;;;;;;;29.75;25.75;;;;;25.47;56.95;101389.69;5033673;28;45734;-35
2022/07/23 10:27:53;;;;;;;;;29.75;24.00;;;;;27.16;55.02;101389.13;5033016;28;45464;-34
2022/07/23 10:30:59;;;;;;;;;31.50;26.75;;;;;28.58;51.23;101384.53;5100839;27;45326;-37
2022/07/23 10:33:53;;;;;;;;;23.75;19.25;;;;;27.91;51.00;101380.78;5067143;27;46009;-37
2022/07/23 10:36:35;;;;;;;;;29.25;25.50;;;;;26.96;52.34;101385.44;5086777;27;45408;-37
2022/07/23 10:39:12;;;;;;;;;31.75;25.00;;;;;26.41;53.59;101388.28;5089766;27;45446;-37
2022/07/23 10:41:41;;;;;;;;;32.00;23.25;;;;;26.01;54.36;101391.63;5087882;27;45620;-37
2022/07/23 10:44:11;;;;;;;;;36.25;29.75;;;;;25.73;54.92;101404.53;5093987;27;45274;-38
2022/07/23 10:49:27;;;;;;;;;35.50;30.00;;;;;26.47;54.69;101403.88;5120735;27;45507;-40
2022/07/23 10:52:14;;;;;;;;;35.00;29.00;;;;;26.68;55.30;101403.06;5098524;27;48176;-41
2022/07/23 10:54:43;;;;;;;;;30.25;26.25;;;;;26.85;55.38;101405.19;5088723;27;45917;-41
2022/07/23 10:57:11;;;;;;;;;35.50;28.50;;;;;26.95;55.60;101407.94;5087575;27;45408;-42
2022/07/23 11:00:13;;;;;;;;;34.75;30.50;;;;;26.71;56.19;101405.50;5090230;27;45454;-39
2022/07/23 11:02:40;;;;;;;;;40.50;32.75;;;;;26.41;56.98;101411.59;5090709;27;47209;-39
2022/07/23 11:05:08;;;;;;;;;36.75;26.25;;;;;26.25;57.77;101417.38;5083105;27;45959;-41
2022/07/23 11:07:35;;;;;;;;;36.75;28.75;;;;;26.22;58.33;101420.31;5090357;27;45865;-43
2022/07/23 11:10:01;;;;;;;;;37.75;33.00;;;;;26.22;58.51;101423.84;5085675;27;45378;-43
2022/07/23 11:12:30;;;;;;;;;36.75;31.00;;;;;26.21;59.41;101422.16;5086909;27;46136;-43
2022/07/23 11:15:01;;;;;;;;;39.75;31.25;;;;;26.18;59.69;101429.59;5091417;27;45464;-42